• Join FlightAware (Why Join?)
  • Login
  • US Flag 
04:24AM EDT


 

Airport Tracker/Info


-or-


 

Live Flight TrackerFlight Track Log ✈ QLK107 ✈ 02-Sep-2013 ✈ YCFS - YSSY / SYD

Flight Track Log - Related Links

Times and Time Zones

All times are in EDT time to prevent confusion due to time zone crossing. See the QLK107 flight status page for this flight to view local times or setup timezone preferences in your user account.

Time Position Orientation Groundspeed Altitude Reporting Facility
EDT Latitude Longitude Course Direction KTS MPH feet Rate Location/Type
09:38PM -30.4164 153.0388 215° Southwest  Level FlightAware Approximate
09:38PM -30.3206 153.1163 213° Southwest 18,000  Level Aus ATC (Calculated)
09:39PM -30.3596 153.0791 210° Southwest 18,000 -4,440 Level Aus ATC (Calculated)
09:39PM -30.3596 153.0791 210° Southwest 18,000 -6,180 Level Aus ATC (Calculated)
09:41PM -30.4593 152.9987 215° Southwest  Level FlightAware Approximate
09:41PM -30.4488 153.0186 215° Southwest 172 198 4,600  Level Aus ATC (RADAR)
09:41PM -30.4661 153.0025 219° Southwest 164 189 5,200 1,200 Climbing Aus ATC (RADAR)
09:42PM -30.4905 152.9827 215° Southwest 179 206 5,900 1,200 Climbing Aus ATC (RADAR)
09:43PM -30.5228 152.9562 215° Southwest 190 219 6,800 1,200 Climbing Aus ATC (RADAR)
09:43PM -30.5479 152.9359 215° Southwest 189 217 7,500 1,320 Climbing Aus ATC (RADAR)
09:44PM -30.5865 152.9054 214° Southwest 183 211 8,800 1,200 Climbing Aus ATC (RADAR)
09:45PM -30.6212 152.8765 216° Southwest 186 214 9,700 960 Climbing Aus ATC (RADAR)
09:46PM -30.6743 152.8333 215° Southwest 188 216 10,800 840 Climbing Aus ATC (RADAR)
09:47PM -30.7167 152.7982 215° Southwest 187 215 11,600 840 Climbing Aus ATC (RADAR)
09:48PM -30.7492 152.7718 215° Southwest 190 219 12,300 780 Climbing Aus ATC (RADAR)
09:48PM -30.7743 152.7513 215° Southwest 189 217 12,700 780 Climbing Aus ATC (RADAR)
09:49PM -30.8065 152.7247 215° Southwest 188 216 13,400 840 Climbing Aus ATC (RADAR)
09:51PM -30.8817 152.6631 215° Southwest 184 212 14,800 720 Climbing Aus ATC (RADAR)
09:52PM -30.9175 152.6335 215° Southwest 191 220 15,300 600 Climbing Aus ATC (RADAR)
09:52PM -30.9457 152.6105 215° Southwest 187 215 15,700 660 Climbing Aus ATC (RADAR)
09:53PM -30.9789 152.5833 215° Southwest 193 222 16,300 660 Climbing Aus ATC (RADAR)
09:54PM -31.0047 152.5622 215° Southwest 194 223 16,600 600 Climbing Aus ATC (RADAR)
09:55PM -31.0413 152.5309 216° Southwest 195 224 17,200 600 Climbing Aus ATC (RADAR)
09:56PM -31.1069 152.4772 215° Southwest 193 222 18,100 480 Climbing Aus ATC (RADAR)
09:57PM -31.1498 152.4417 215° Southwest 192 221 18,500 180 Climbing Aus ATC (RADAR)
09:58PM -31.1841 152.4137 215° Southwest 204 235 18,500  Level Aus ATC (RADAR)
09:58PM -31.2123 152.3898 216° Southwest 215 247 18,500  Level Aus ATC (RADAR)
09:59PM -31.2495 152.3587 216° Southwest 221 254 18,500  Level Aus ATC (RADAR)
10:00PM -31.3004 152.3165 215° Southwest 226 260 18,500  Level Aus ATC (RADAR)
10:01PM -31.3525 152.2739 215° Southwest 230 265 18,500  Level Aus ATC (RADAR)
10:02PM -31.4042 152.2302 216° Southwest 229 264 18,500  Level Aus ATC (RADAR)
10:03PM -31.4437 152.1971 216° Southwest 232 267 18,500  Level Aus ATC (RADAR)
10:03PM -31.4743 152.1714 216° Southwest 234 269 18,500  Level Aus ATC (RADAR)
10:04PM -31.5141 152.1384 215° Southwest 234 269 18,500  Level Aus ATC (RADAR)
10:05PM -31.5671 152.0937 216° Southwest 235 270 18,500  Level Aus ATC (RADAR)
10:06PM -31.6246 152.0454 216° Southwest 235 270 18,500  Level Aus ATC (RADAR)
10:07PM -31.6692 152.0082 215° Southwest 237 273 18,500  Level Aus ATC (RADAR)
10:08PM -31.7092 151.9749 215° Southwest 236 272 18,500  Level Aus ATC (RADAR)
10:08PM -31.7399 151.9483 216° Southwest 237 273 18,500  Level Aus ATC (RADAR)
10:09PM -31.7796 151.9141 216° Southwest 237 273 18,500  Level Aus ATC (RADAR)
10:10PM -31.8375 151.8658 215° Southwest 237 273 18,500  Level Aus ATC (RADAR)
10:11PM -31.8996 151.8136 216° Southwest 235 270 18,500  Level Aus ATC (RADAR)
10:12PM -31.9527 151.7687 216° Southwest 236 272 18,500  Level Aus ATC (RADAR)
10:13PM -31.9924 151.7352 216° Southwest 235 270 18,500  Level Aus ATC (RADAR)
10:14PM -32.0230 151.7085 217° Southwest 235 270 18,500  Level Aus ATC (RADAR)
10:15PM -32.0673 151.6712 215° Southwest 236 272 18,500  Level Aus ATC (RADAR)
10:16PM -32.1398 151.6094 216° Southwest 233 268 18,500  Level Aus ATC (RADAR)
10:17PM -32.1740 151.5811 215° Southwest 237 273 18,500  Level Aus ATC (RADAR)
10:18PM -32.2201 151.5419 216° Southwest 232 267 18,500  Level Aus ATC (RADAR)
10:18PM -32.2537 151.5123 217° Southwest 238 274 18,500  Level Aus ATC (RADAR)
10:19PM -32.2867 151.4852 215° Southwest 232 267 18,500  Level Aus ATC (RADAR)
10:20PM -32.3352 151.4429 216° Southwest 233 268 18,500  Level Aus ATC (RADAR)
10:20PM -32.3782 151.4066 216° Southwest 237 273 18,500  Level Aus ATC (RADAR)
10:22PM -32.4425 151.3517 216° Southwest 235 270 18,500  Level Aus ATC (RADAR)
10:23PM -32.4984 151.3032 216° Southwest 239 275 18,500  Level Aus ATC (RADAR)
10:23PM -32.5340 151.2725 216° Southwest 239 275 18,500  Level Aus ATC (RADAR)
10:24PM -32.5703 151.2538 204° Southwest 229 264 18,500  Level Aus ATC (RADAR)
10:25PM -32.6225 151.2535 180° South 230 265 18,500  Level Aus ATC (RADAR)
10:26PM -32.7161 151.2487 182° South 233 268 18,500  Level Aus ATC (RADAR)
10:27PM -32.7724 151.2455 183° South 229 264 18,500  Level Aus ATC (RADAR)
10:28PM -32.8103 151.2434 183° South 231 266 18,500  Level Aus ATC (RADAR)
10:28PM -32.8583 151.2409 183° South 230 265 18,500  Level Aus ATC (RADAR)
10:29PM -32.8933 151.2401 181° South 233 268 18,500  Level Aus ATC (RADAR)
10:30PM -32.9310 151.2376 183° South 233 268 18,500  Level Aus ATC (RADAR)
10:30PM -32.9770 151.2348 183° South 230 265 18,500  Level Aus ATC (RADAR)
10:31PM -33.0092 151.2325 184° South 231 266 18,500 -960 Level Aus ATC (RADAR)
10:32PM -33.0965 151.2275 183° South 255 293 16,900 -1,380 Descending Aus ATC (RADAR)
10:33PM -33.1632 151.2246 182° South 255 293 15,600 -1,260 Descending Aus ATC (RADAR)
10:34PM -33.2173 151.2231 181° South 255 293 14,800 -1,020 Descending Aus ATC (RADAR)
10:34PM -33.2617 151.2197 184° South 259 298 14,200 -1,020 Descending Aus ATC (RADAR)
10:35PM -33.3247 151.2142 184° South 254 292 13,300 -1,020 Descending Aus ATC (RADAR)
10:36PM -33.3701 151.2122 182° South 259 298 12,700 -1,080 Descending Aus ATC (RADAR)
10:37PM -33.4601 151.2088 182° South 253 291 11,300 -1,200 Descending Aus ATC (RADAR)
10:38PM -33.5341 151.2045 183° South 250 288 10,000 -1,200 Descending Aus ATC (RADAR)
10:39PM -33.5876 151.2019 182° South 251 289 9,200 -960 Descending Aus ATC (RADAR)
10:40PM -33.6347 151.1983 184° South 249 287 8,700 -660 Descending Aus ATC (RADAR)
10:40PM -33.6862 151.1950 183° South 244 281 8,300 -540 Descending Aus ATC (RADAR)
10:42PM -33.8110 151.1612 193° South 251 289 7,400 -540 Descending Aus ATC (RADAR)
10:43PM -33.8765 151.1337 199° South 248 285 6,800 -540 Descending Aus ATC (RADAR)
10:44PM -33.9254 151.1129 199° South 247 284 6,500 -480 Descending Aus ATC (RADAR)
10:44PM -33.9644 151.1007 195° South 244 281 6,200 -360 Descending Aus ATC (RADAR)
10:45PM -34.0187 151.0811 197° South 240 276 6,000 -480 Descending Aus ATC (RADAR)
10:47PM -34.1144 151.0917 175° South 227 261 5,200 -600 Descending Aus ATC (RADAR)
10:48PM -34.1757 151.1178 161° South 224 258 4,600 -660 Descending Aus ATC (RADAR)
10:49PM -34.1879 151.1788 104° East 231 266 4,100 -540 Descending Aus ATC (RADAR)
10:49PM -34.1812 151.2221 80° East 233 268 3,900 -480 Descending Aus ATC (RADAR)
10:50PM -34.1375 151.2247 North 208 239 3,500 -840 Descending Aus ATC (RADAR)
10:51PM -34.0825 151.2114 349° North 194 223 2,400 -1,020 Descending Aus ATC (RADAR)
10:52PM -34.0331 151.1984 348° North 160 184 1,400 -840 Descending Aus ATC (RADAR)
10:53PM -33.9975 151.1892 348° North 125 144 700 -720 Descending Aus ATC (RADAR)
10:54PM -33.9720 151.1828 348° North 118 136 200 -480 Descending Aus ATC (RADAR)
10:54PM -33.9532 151.1779 348° North 112 129 100 -180 Descending Aus ATC (RADAR)